Time;durP1;ratioP1;P1;durP2;ratioP2;P2;SDS_P1;SDS_P2;PMS_P1;PMS_P2;Temp;Humidity;BMP_temperature;BMP_pressure;BME280_temperature;BME280_humidity;BME280_pressure;Samples;Min_cycle;Max_cycle;Signal;HPM_P1;HPM_P2
2022/06/28 00:01:41;;;;;;;4.03;3.33;;;;;;;14.01;100.00;101878.50;4895927;29;20181;-79
2022/06/28 00:04:07;;;;;;;3.50;3.22;;;;;;;14.03;100.00;101883.72;4895789;29;20036;-76
2022/06/28 00:06:33;;;;;;;6.85;3.53;;;;;;;13.99;100.00;101876.00;4895315;29;20036;-77
2022/06/28 00:08:58;;;;;;;4.50;3.85;;;;;;;13.91;100.00;101876.25;4881693;29;20532;-74
2022/06/28 00:11:23;;;;;;;3.95;3.50;;;;;;;13.92;100.00;101885.25;4898501;29;20032;-80
2022/06/28 00:13:48;;;;;;;6.22;3.58;;;;;;;13.85;100.00;101877.16;4882434;29;20131;-77
2022/06/28 00:16:16;;;;;;;5.32;3.25;;;;;;;13.83;100.00;101866.50;4898253;29;20077;-78
2022/06/28 00:18:42;;;;;;;7.55;3.22;;;;;;;13.80;100.00;101877.00;4898173;29;20161;-78
2022/06/28 00:21:09;;;;;;;7.03;3.85;;;;;;;13.81;100.00;101878.63;4880950;29;20028;-80
2022/06/28 00:23:36;;;;;;;4.35;3.45;;;;;;;13.83;100.00;101880.09;4897979;29;20036;-72
2022/06/28 00:26:03;;;;;;;6.03;3.40;;;;;;;13.80;100.00;101882.44;4898123;29;20041;-74
2022/06/28 00:28:29;;;;;;;5.28;3.50;;;;;;;13.74;100.00;101877.84;4884084;29;20041;-76
2022/06/28 00:30:54;;;;;;;5.20;3.55;;;;;;;13.73;100.00;101900.69;4881905;29;20041;-74
2022/06/28 00:33:20;;;;;;;4.35;3.50;;;;;;;13.76;100.00;101892.09;4875178;29;20088;-78
2022/06/28 00:35:46;;;;;;;4.05;3.65;;;;;;;13.73;100.00;101889.81;4881602;29;20041;-78
2022/06/28 00:38:12;;;;;;;4.05;3.63;;;;;;;13.66;100.00;101884.41;4880230;29;20028;-77
2022/06/28 00:40:52;;;;;;;5.93;3.42;;;;;;;13.69;100.00;101885.84;4875547;29;20054;-79
2022/06/28 00:43:18;;;;;;;4.05;3.33;;;;;;;13.64;100.00;101884.63;4881567;29;20380;-77
2022/06/28 00:45:45;;;;;;;7.38;3.63;;;;;;;13.67;100.00;101891.50;4893641;29;20035;-76
2022/06/28 00:48:15;;;;;;;6.43;3.55;;;;;;;13.63;100.00;101884.84;4898643;29;20036;-76
2022/06/28 00:50:41;;;;;;;7.45;3.90;;;;;;;13.62;100.00;101894.91;4879767;29;20028;-76
2022/06/28 00:53:12;;;;;;;6.82;3.70;;;;;;;13.62;100.00;101896.78;4878536;29;20033;-77
2022/06/28 00:55:38;;;;;;;7.50;3.80;;;;;;;13.59;100.00;101894.50;4872794;29;20045;-78
2022/06/28 00:58:04;;;;;;;9.95;3.95;;;;;;;13.55;100.00;101894.09;4897603;29;20388;-79
2022/06/28 01:00:34;;;;;;;5.78;3.42;;;;;;;13.55;100.00;101896.81;4872766;29;20028;-77
2022/06/28 01:03:00;;;;;;;5.55;3.58;;;;;;;13.55;100.00;101891.38;4877907;29;20068;-74
2022/06/28 01:05:25;;;;;;;5.82;3.70;;;;;;;13.51;100.00;101889.31;4889708;29;20037;-77
2022/06/28 01:07:51;;;;;;;4.03;3.42;;;;;;;13.52;100.00;101899.16;4894546;29;20112;-77
2022/06/28 01:10:16;;;;;;;4.28;3.60;;;;;;;13.52;100.00;101897.25;4897103;29;20108;-77
2022/06/28 01:12:41;;;;;;;7.35;4.15;;;;;;;13.51;100.00;101894.75;4898226;29;20078;-74
2022/06/28 01:15:07;;;;;;;7.03;3.88;;;;;;;13.49;100.00;101897.69;4896885;29;20043;-82
2022/06/28 01:17:33;;;;;;;9.10;4.05;;;;;;;13.51;100.00;101890.16;4896199;29;20131;-81
2022/06/28 01:19:58;;;;;;;7.40;4.07;;;;;;;13.50;100.00;101895.81;4895407;29;20524;-80
2022/06/28 01:22:27;;;;;;;8.93;3.92;;;;;;;13.49;100.00;101903.13;4879025;29;20040;-76
2022/06/28 01:24:52;;;;;;;7.75;4.03;;;;;;;13.46;100.00;101903.56;4882734;29;20040;-74
2022/06/28 01:27:19;;;;;;;8.00;4.28;;;;;;;13.38;100.00;101901.13;4893633;29;20098;-78
2022/06/28 01:29:44;;;;;;;9.18;4.20;;;;;;;13.43;100.00;101901.28;4896658;29;20040;-80
2022/06/28 01:32:10;;;;;;;5.65;4.00;;;;;;;13.41;100.00;101903.41;4897142;29;20043;-71
2022/06/28 01:34:35;;;;;;;6.03;4.20;;;;;;;13.34;100.00;101906.16;4897768;29;20065;-75
2022/06/28 01:37:01;;;;;;;9.52;4.35;;;;;;;13.35;100.00;101909.72;4896353;29;20072;-78
2022/06/28 01:39:26;;;;;;;6.80;4.13;;;;;;;13.34;100.00;101911.59;4895842;29;20044;-75
2022/06/28 01:41:52;;;;;;;8.48;4.30;;;;;;;13.21;100.00;101903.47;4896458;29;20040;-79
2022/06/28 01:44:18;;;;;;;5.63;3.95;;;;;;;13.23;100.00;101902.19;4896506;29;20469;-80
2022/06/28 01:46:44;;;;;;;6.05;4.13;;;;;;;13.22;100.00;101907.84;4880828;29;20040;-75
2022/06/28 01:49:09;;;;;;;7.57;4.28;;;;;;;13.22;100.00;101908.69;4896493;29;20049;-80
2022/06/28 01:51:35;;;;;;;6.75;3.85;;;;;;;13.24;100.00;101912.03;4897483;29;20032;-78
2022/06/28 01:54:00;;;;;;;4.50;3.95;;;;;;;13.20;100.00;101908.06;4896532;29;20032;-79
2022/06/28 01:56:25;;;;;;;9.60;4.60;;;;;;;13.16;100.00;101911.44;4895155;29;20067;-72
2022/06/28 01:58:51;;;;;;;5.70;4.13;;;;;;;13.16;100.00;101908.72;4895786;29;20048;-74
2022/06/28 02:01:16;;;;;;;7.15;4.05;;;;;;;13.12;100.00;101914.59;4893895;29;20049;-80
2022/06/28 02:03:42;;;;;;;9.13;4.20;;;;;;;13.09;100.00;101912.31;4897519;29;20036;-74
2022/06/28 02:06:08;;;;;;;5.32;4.13;;;;;;;13.12;100.00;101919.22;4896309;29;20044;-81
2022/06/28 02:08:35;;;;;;;8.65;4.60;;;;;;;13.05;100.00;101907.53;4896580;29;20040;-79
2022/06/28 02:11:01;;;;;;;9.30;4.50;;;;;;;13.02;100.00;101921.53;4893956;29;20033;-79
2022/06/28 02:13:27;;;;;;;6.88;4.18;;;;;;;13.02;100.00;101914.22;4897019;29;20115;-73
2022/06/28 02:15:53;;;;;;;6.55;4.10;;;;;;;13.05;100.00;101921.13;4897157;29;20567;-78
2022/06/28 02:18:18;;;;;;;9.73;4.20;;;;;;;13.03;100.00;101925.91;4895097;29;20044;-78
2022/06/28 02:20:43;;;;;;;7.35;4.30;;;;;;;12.97;100.00;101924.91;4896778;29;20043;-75
2022/06/28 02:23:09;;;;;;;5.55;4.25;;;;;;;12.96;100.00;101931.38;4896741;29;20418;-75
2022/06/28 02:25:34;;;;;;;7.70;4.28;;;;;;;12.92;100.00;101927.41;4881340;29;20115;-80
2022/06/28 02:28:00;;;;;;;14.00;4.20;;;;;;;12.86;100.00;101931.84;4896208;29;20115;-76
2022/06/28 02:30:25;;;;;;;8.07;3.70;;;;;;;12.86;100.00;101939.13;4880563;29;20495;-76
2022/06/28 02:32:50;;;;;;;5.75;3.70;;;;;;;12.80;100.00;101938.09;4883044;29;20032;-78
2022/06/28 02:40:44;;;;;;;6.63;4.30;;;;;;;12.82;100.00;101946.91;4900693;29;20055;-78
2022/06/28 02:43:10;;;;;;;7.68;4.00;;;;;;;12.78;100.00;101948.34;4899477;29;20058;-73
2022/06/28 02:45:35;;;;;;;5.07;3.50;;;;;;;12.77;100.00;101949.41;4887060;29;20060;-76
2022/06/28 02:48:02;;;;;;;4.85;4.03;;;;;;;12.76;100.00;101958.63;4900496;29;20120;-76
2022/06/28 02:50:27;;;;;;;8.15;4.00;;;;;;;12.72;100.00;101954.63;4875104;29;20468;-80
2022/06/28 02:52:53;;;;;;;5.13;4.03;;;;;;;12.69;100.00;101964.03;4897258;29;20128;-76
2022/06/28 02:55:18;;;;;;;6.13;4.20;;;;;;;12.68;100.00;101965.09;4900549;29;20035;-76
2022/06/28 02:57:45;;;;;;;5.82;3.88;;;;;;;12.67;100.00;101970.75;4897060;29;20048;-79
2022/06/28 03:00:13;;;;;;;4.43;3.63;;;;;;;12.59;100.00;101969.91;4898729;29;20028;-75
2022/06/28 03:02:40;;;;;;;7.13;3.60;;;;;;;12.63;100.00;101974.94;4896022;29;20057;-76
2022/06/28 03:05:07;;;;;;;5.10;3.67;;;;;;;12.58;100.00;101981.00;4900375;29;20084;-77
2022/06/28 03:07:33;;;;;;;4.72;3.33;;;;;;;12.50;100.00;101979.34;4898220;29;20068;-77
2022/06/28 03:09:59;;;;;;;7.93;3.33;;;;;;;12.45;100.00;101972.84;4900003;29;20068;-75
2022/06/28 03:12:24;;;;;;;8.95;3.60;;;;;;;12.39;100.00;101980.81;4898918;29;20036;-77
2022/06/28 03:14:50;;;;;;;5.70;3.55;;;;;;;12.47;100.00;101981.63;4898897;29;20040;-74
2022/06/28 03:17:15;;;;;;;6.60;3.35;;;;;;;12.48;100.00;101986.81;4900121;29;20029;-79
2022/06/28 03:19:41;;;;;;;4.55;3.40;;;;;;;12.50;100.00;101982.03;4899003;29;20455;-73
2022/06/28 03:22:06;;;;;;;7.15;3.65;;;;;;;12.52;100.00;101984.56;4880480;29;20037;-77
2022/06/28 03:24:32;;;;;;;7.03;3.25;;;;;;;12.50;100.00;101986.63;4890262;29;20036;-76
2022/06/28 03:26:57;;;;;;;4.97;3.58;;;;;;;12.45;100.00;101989.16;4893644;29;20040;-77
2022/06/28 03:29:22;;;;;;;5.20;3.30;;;;;;;12.45;100.00;101989.16;4892886;29;20051;-75
2022/06/28 03:31:51;;;;;;;6.35;3.20;;;;;;;12.43;100.00;101997.50;4879251;29;20040;-77
2022/06/28 03:34:17;;;;;;;5.95;3.28;;;;;;;12.40;100.00;101995.19;4895227;29;20091;-74
2022/06/28 03:36:42;;;;;;;6.35;3.45;;;;;;;12.40;100.00;101996.03;4899681;29;20477;-78
2022/06/28 03:39:08;;;;;;;10.13;3.75;;;;;;;12.40;100.00;101992.47;4898896;29;20032;-77
2022/06/28 03:41:33;;;;;;;8.20;3.40;;;;;;;12.38;100.00;102000.84;4899424;29;20044;-76
2022/06/28 03:43:59;;;;;;;7.93;3.20;;;;;;;12.41;100.00;101999.59;4897283;29;20100;-77
2022/06/28 03:46:24;;;;;;;6.05;3.20;;;;;;;12.37;100.00;102001.88;4898250;29;20067;-73
2022/06/28 03:48:49;;;;;;;5.07;3.25;;;;;;;12.38;100.00;102002.72;4898343;29;20048;-75
2022/06/28 03:51:15;;;;;;;7.05;3.38;;;;;;;12.38;100.00;102002.72;4897665;29;20036;-75
2022/06/28 03:53:40;;;;;;;7.63;3.08;;;;;;;12.42;100.00;102006.69;4882843;29;20036;-74
2022/06/28 03:56:06;;;;;;;5.63;3.22;;;;;;;12.40;100.00;102003.34;4897168;29;20107;-76
2022/06/28 03:58:32;;;;;;;4.10;3.30;;;;;;;12.41;100.00;101999.59;4898443;29;20053;-76
2022/06/28 04:00:58;;;;;;;8.75;3.55;;;;;;;12.47;100.00;102006.03;4894752;29;20048;-78
2022/06/28 04:03:23;;;;;;;7.72;3.50;;;;;;;12.46;100.00;101997.06;4897942;29;20036;-76
2022/06/28 04:05:49;;;;;;;7.25;3.20;;;;;;;12.47;100.00;101997.91;4882623;29;20033;-76
2022/06/28 04:08:14;;;;;;;7.05;3.17;;;;;;;12.47;100.00;102006.91;4901303;29;20040;-77
2022/06/28 04:10:40;;;;;;;7.70;3.47;;;;;;;12.48;100.00;102011.25;4897807;29;20032;-74
2022/06/28 04:13:06;;;;;;;7.55;2.90;;;;;;;12.49;100.00;102002.09;4898784;29;20033;-75
2022/06/28 04:15:31;;;;;;;11.35;3.22;;;;;;;12.48;100.00;101999.59;4898137;29;20049;-75
2022/06/28 04:17:57;;;;;;;6.15;3.13;;;;;;;12.46;100.00;102002.50;4898996;29;20064;-76
2022/06/28 04:20:22;;;;;;;4.68;2.92;;;;;;;12.42;100.00;102001.25;4899014;29;20108;-75
2022/06/28 04:22:47;;;;;;;8.48;3.20;;;;;;;12.44;100.00;102007.31;4897186;29;20029;-73
2022/06/28 04:25:13;;;;;;;5.65;2.97;;;;;;;12.45;100.00;102010.88;4898715;29;20033;-76
2022/06/28 04:27:38;;;;;;;7.97;3.00;;;;;;;12.41;100.00;102005.84;4884485;29;20044;-78
2022/06/28 04:30:04;;;;;;;8.60;3.47;;;;;;;12.44;100.00;102012.75;4896123;29;20033;-74
2022/06/28 04:32:30;;;;;;;5.97;3.30;;;;;;;12.47;100.00;102015.03;4882013;29;20491;-77
2022/06/28 04:34:56;;;;;;;7.53;2.95;;;;;;;12.50;100.00;102016.47;4897363;29;20029;-72
2022/06/28 04:37:22;;;;;;;9.68;3.35;;;;;;;12.52;100.00;102011.69;4881803;29;20123;-77
2022/06/28 04:39:47;;;;;;;6.65;3.10;;;;;;;12.54;100.00;102007.72;4897954;29;20541;-77
2022/06/28 04:42:12;;;;;;;7.40;2.97;;;;;;;12.56;100.00;102008.34;4898453;29;20045;-78
2022/06/28 04:44:38;;;;;;;8.32;3.20;;;;;;;12.53;100.00;102003.34;4897584;29;20040;-75
2022/06/28 04:47:04;;;;;;;9.77;3.65;;;;;;;12.54;100.00;102005.00;4898364;29;20052;-74
2022/06/28 04:49:29;;;;;;;10.40;3.13;;;;;;;12.56;100.00;102010.22;4879297;29;20036;-76
2022/06/28 04:51:55;;;;;;;6.50;2.75;;;;;;;12.57;100.00;102004.56;4897160;29;20524;-74
2022/06/28 04:54:21;;;;;;;8.43;3.00;;;;;;;12.59;100.00;102013.38;4881206;29;20123;-75
2022/06/28 04:56:46;;;;;;;8.40;2.90;;;;;;;12.58;100.00;102014.41;4897015;29;20514;-75
2022/06/28 04:59:11;;;;;;;7.63;2.95;;;;;;;12.65;100.00;102019.00;4897237;29;20455;-75
2022/06/28 05:01:37;;;;;;;10.23;3.30;;;;;;;12.68;100.00;102015.84;4893456;29;20100;-77
2022/06/28 05:04:02;;;;;;;5.53;2.90;;;;;;;12.70;100.00;102008.34;4896716;29;20036;-78
2022/06/28 05:06:27;;;;;;;10.27;3.40;;;;;;;12.78;100.00;102016.25;4898341;29;20103;-75
2022/06/28 05:08:55;;;;;;;8.77;3.53;;;;;;;12.82;100.00;102012.09;4897363;29;20128;-77
2022/06/28 05:11:21;;;;;;;9.80;3.25;;;;;;;12.82;100.00;102016.66;4896642;29;20076;-75
2022/06/28 05:13:46;;;;;;;8.00;2.92;;;;;;;12.86;100.00;102023.34;4882174;29;20503;-77
2022/06/28 05:16:11;;;;;;;7.82;2.92;;;;;;;12.93;100.00;102027.72;4881258;29;20388;-74
2022/06/28 05:18:37;;;;;;;11.40;3.20;;;;;;;13.00;100.00;102018.72;4897240;29;20071;-73
2022/06/28 05:21:02;;;;;;;9.15;2.88;;;;;;;13.04;100.00;102025.41;4896792;29;20028;-73
2022/06/28 05:23:27;;;;;;;8.57;3.17;;;;;;;13.09;100.00;102020.19;4880197;29;20056;-78
2022/06/28 05:25:54;;;;;;;6.22;2.83;;;;;;;13.15;100.00;102016.63;4894410;29;20043;-76
2022/06/28 05:28:19;;;;;;;13.75;3.00;;;;;;;13.23;100.00;102019.09;4897741;29;20111;-73
2022/06/28 05:30:44;;;;;;;13.00;3.00;;;;;;;13.29;100.00;102026.38;4898094;29;20501;-74
2022/06/28 05:33:10;;;;;;;9.65;2.97;;;;;;;13.32;100.00;102014.25;4880920;29;20028;-75
2022/06/28 05:35:35;;;;;;;12.23;3.33;;;;;;;13.37;100.00;102019.06;4894997;29;20037;-75
2022/06/28 05:38:01;;;;;;;14.98;3.42;;;;;;;13.42;99.03;102011.09;4896884;29;20036;-76
2022/06/28 05:40:26;;;;;;;17.10;3.15;;;;;;;13.46;98.82;102006.91;4897514;29;20107;-76
2022/06/28 05:42:51;;;;;;;9.98;2.90;;;;;;;13.44;99.87;102007.13;4881265;29;20127;-73
2022/06/28 05:45:17;;;;;;;7.88;2.70;;;;;;;13.50;97.76;102002.72;4896116;29;20497;-75
2022/06/28 05:47:42;;;;;;;9.65;2.60;;;;;;;13.55;98.33;102002.88;4896796;29;20029;-75
2022/06/28 05:50:07;;;;;;;12.88;3.10;;;;;;;13.58;99.71;102002.44;4897179;29;20116;-75
2022/06/28 05:52:33;;;;;;;8.88;2.90;;;;;;;13.61;97.16;101998.47;4880670;29;20527;-78
2022/06/28 05:54:58;;;;;;;8.82;2.33;;;;;;;13.64;99.17;101998.84;4894527;29;20036;-79
2022/06/28 05:57:23;;;;;;;10.35;2.83;;;;;;;13.69;98.67;101994.66;4895275;29;20076;-73
2022/06/28 05:59:48;;;;;;;10.32;2.78;;;;;;;13.71;99.48;101990.69;4896179;29;20089;-78
2022/06/28 06:02:14;;;;;;;11.60;2.78;;;;;;;13.77;97.34;101991.69;4890047;29;20450;-76
2022/06/28 06:04:39;;;;;;;8.23;3.38;;;;;;;13.82;93.62;101995.41;4884520;29;20120;-78
2022/06/28 06:07:04;;;;;;;10.32;3.47;;;;;;;13.87;93.35;102004.81;4880009;29;20637;-74
2022/06/28 06:09:30;;;;;;;11.75;3.33;;;;;;;13.91;92.82;101995.97;4896506;29;20036;-75
2022/06/28 06:11:56;;;;;;;17.08;2.75;;;;;;;13.93;94.09;101995.78;4896591;29;20044;-75
2022/06/28 06:14:21;;;;;;;12.35;3.20;;;;;;;14.01;95.90;102006.41;4880797;29;20381;-74
2022/06/28 06:16:50;;;;;;;18.73;3.10;;;;;;;14.07;94.64;102008.25;4880719;29;20048;-76
2022/06/28 06:19:16;;;;;;;10.68;3.22;;;;;;;14.17;97.58;102005.03;4883100;29;20052;-76
2022/06/28 06:21:41;;;;;;;7.97;3.15;;;;;;;14.27;91.78;101999.09;4884668;29;20484;-74
2022/06/28 06:24:07;;;;;;;13.10;2.83;;;;;;;14.30;89.17;102013.09;4896314;29;20065;-76
2022/06/28 06:26:33;;;;;;;14.30;3.40;;;;;;;14.33;89.39;102012.66;4895890;29;20123;-74
2022/06/28 06:28:58;;;;;;;17.13;3.40;;;;;;;14.37;89.19;102007.56;4897329;29;20068;-76
2022/06/28 06:31:24;;;;;;;11.63;2.90;;;;;;;14.39;89.21;102010.06;4893135;29;20072;-79
2022/06/28 06:33:49;;;;;;;10.40;3.10;;;;;;;14.46;87.10;102016.31;4903846;29;20108;-77
2022/06/28 06:36:14;;;;;;;9.10;2.70;;;;;;;14.51;85.25;102021.94;4893073;29;20060;-76
2022/06/28 06:38:40;;;;;;;13.27;3.13;;;;;;;14.53;82.82;102022.53;4896648;29;20084;-76
2022/06/28 06:41:05;;;;;;;11.55;2.97;;;;;;;14.57;85.82;102018.31;4879615;29;20092;-78
2022/06/28 06:43:30;;;;;;;12.52;3.13;;;;;;;14.60;84.53;102026.03;4893372;29;20032;-77
2022/06/28 06:45:56;;;;;;;8.73;2.60;;;;;;;14.66;85.42;102027.91;4896745;29;20032;-75
2022/06/28 06:48:22;;;;;;;13.30;3.00;;;;;;;14.76;84.42;102032.00;4899009;29;20048;-77
2022/06/28 06:50:47;;;;;;;11.80;3.47;;;;;;;14.78;80.77;102029.88;4880260;29;20057;-78
2022/06/28 06:53:13;;;;;;;11.25;2.33;;;;;;;14.82;82.09;102022.94;4894040;29;20496;-77
2022/06/28 06:55:38;;;;;;;11.00;2.83;;;;;;;14.89;81.74;102021.81;4886632;29;20045;-77
2022/06/28 06:58:03;;;;;;;9.63;2.90;;;;;;;14.89;77.58;102034.59;4894008;29;20060;-72
2022/06/28 07:00:29;;;;;;;16.15;3.17;;;;;;;14.97;77.98;102034.31;4893606;29;20072;-72
2022/06/28 07:02:54;;;;;;;13.20;2.80;;;;;;;14.99;79.00;102037.66;4880676;29;20044;-74
2022/06/28 07:05:19;;;;;;;11.05;2.28;;;;;;;15.05;82.38;102031.31;4896806;29;20029;-72
2022/06/28 07:07:45;;;;;;;12.10;2.70;;;;;;;15.03;78.71;102030.66;4896105;29;20029;-70
2022/06/28 07:10:10;;;;;;;10.18;2.83;;;;;;;15.05;75.27;102034.03;4879885;29;20025;-71
2022/06/28 07:12:35;;;;;;;7.45;2.25;;;;;;;15.11;73.27;102042.34;4896514;29;20029;-74
2022/06/28 07:15:01;;;;;;;10.95;2.67;;;;;;;15.13;75.55;102042.97;4887146;29;20036;-74
2022/06/28 07:17:26;;;;;;;10.65;2.40;;;;;;;15.14;75.71;102039.16;4896447;29;20396;-74
2022/06/28 07:19:51;;;;;;;15.38;3.03;;;;;;;15.22;76.28;102033.44;4899238;29;20060;-73
2022/06/28 07:22:17;;;;;;;10.80;2.50;;;;;;;15.30;75.55;102029.56;4898463;29;20185;-74
2022/06/28 07:24:42;;;;;;;9.80;2.80;;;;;;;15.35;74.89;102033.28;4900188;29;20064;-72
2022/06/28 07:27:07;;;;;;;13.18;3.17;;;;;;;15.41;73.25;102035.09;4886228;29;20040;-72
2022/06/28 07:29:32;;;;;;;10.38;2.55;;;;;;;15.45;71.94;102030.00;4899090;29;20051;-75
2022/06/28 07:31:58;;;;;;;11.48;2.55;;;;;;;15.50;72.13;102037.50;4898762;29;20040;-72
2022/06/28 07:34:23;;;;;;;10.75;2.70;;;;;;;15.54;75.07;102025.06;4893748;29;20040;-73
2022/06/28 07:36:49;;;;;;;8.90;2.63;;;;;;;15.58;75.45;102035.28;4898872;29;20036;-73
2022/06/28 07:39:14;;;;;;;8.27;2.13;;;;;;;15.67;73.75;102030.34;4882754;29;20028;-72
2022/06/28 07:41:40;;;;;;;11.30;2.92;;;;;;;15.68;71.24;102037.47;4883031;29;20108;-74
2022/06/28 07:44:05;;;;;;;9.63;2.58;;;;;;;15.74;72.75;102035.72;4881729;29;20073;-75
2022/06/28 07:46:31;;;;;;;7.95;2.35;;;;;;;15.76;70.09;102037.16;4899502;29;20101;-74
2022/06/28 07:48:56;;;;;;;9.50;2.72;;;;;;;15.77;71.05;102030.66;4898666;29;20384;-74
2022/06/28 07:54:06;;;;;;;10.90;2.03;;;;;;;15.82;66.17;102040.91;4899684;29;20100;-75
2022/06/28 07:56:32;;;;;;;9.57;2.00;;;;;;;15.90;64.22;102042.47;4897226;29;20450;-74
2022/06/28 07:58:57;;;;;;;6.93;2.30;;;;;;;15.96;68.02;102030.63;4900997;29;20108;-74
2022/06/28 08:01:22;;;;;;;8.32;2.47;;;;;;;16.06;68.33;102030.03;4895709;29;20586;-73
2022/06/28 08:03:48;;;;;;;8.95;2.67;;;;;;;16.13;68.41;102028.06;4896952;29;20028;-72
2022/06/28 08:06:14;;;;;;;10.23;2.60;;;;;;;16.13;66.67;102028.06;4899230;29;20172;-75
2022/06/28 08:08:39;;;;;;;7.60;2.25;;;;;;;16.20;67.22;102028.78;4878834;29;20040;-71
2022/06/28 08:11:05;;;;;;;7.22;1.95;;;;;;;16.32;69.96;102026.09;4882806;29;20036;-71
2022/06/28 08:13:30;;;;;;;8.90;2.10;;;;;;;16.40;67.35;102030.38;4881108;29;20036;-71
2022/06/28 08:15:56;;;;;;;9.80;2.60;;;;;;;16.43;65.01;102019.78;4897817;29;20524;-72
2022/06/28 08:18:21;;;;;;;9.00;2.03;;;;;;;16.38;65.00;102016.94;4883556;29;20500;-73
2022/06/28 08:20:47;;;;;;;6.47;1.58;;;;;;;16.38;63.02;102018.81;4898923;29;20567;-72
2022/06/28 08:23:12;;;;;;;10.95;1.92;;;;;;;16.46;65.40;102024.78;4897634;29;20033;-74
2022/06/28 08:25:42;;;;;;;11.20;2.70;;;;;;;16.57;66.65;102014.94;4896833;29;20036;-74
2022/06/28 08:28:08;;;;;;;7.13;1.80;;;;;;;16.56;66.83;102005.09;4882326;29;20056;-73
2022/06/28 08:30:33;;;;;;;10.23;2.10;;;;;;;16.59;65.68;102003.75;4897234;29;20135;-74
2022/06/28 08:32:58;;;;;;;7.25;2.10;;;;;;;16.57;64.70;102003.19;4881296;29;20024;-72
2022/06/28 08:35:24;;;;;;;8.27;2.00;;;;;;;16.58;66.17;101994.75;4897383;29;20472;-72
2022/06/28 08:37:49;;;;;;;4.40;1.60;;;;;;;16.74;67.65;101998.69;4898083;29;20024;-74
2022/06/28 08:40:14;;;;;;;8.88;1.88;;;;;;;16.87;66.10;101992.16;4898692;29;20036;-72
2022/06/28 08:42:46;;;;;;;8.20;2.30;;;;;;;16.92;63.79;102008.66;4883087;29;20033;-73
2022/06/28 08:45:12;;;;;;;6.68;1.73;;;;;;;16.95;62.49;101999.13;4897410;29;20119;-75
2022/06/28 08:47:39;;;;;;;2.78;1.40;;;;;;;17.01;64.40;101989.97;4897282;29;20181;-74
2022/06/28 08:50:13;;;;;;;7.55;1.60;;;;;;;17.01;60.54;101998.19;4898322;29;20132;-73
2022/06/28 08:52:41;;;;;;;6.53;1.38;;;;;;;17.02;61.00;101990.81;4896763;29;20481;-73
2022/06/28 08:55:08;;;;;;;3.70;1.40;;;;;;;17.06;58.85;101984.63;4869935;29;20507;-73
2022/06/28 08:57:35;;;;;;;5.22;1.70;;;;;;;17.11;61.04;101986.66;4879367;29;20068;-75
2022/06/28 09:00:04;;;;;;;6.25;1.70;;;;;;;17.20;60.87;101996.13;4879867;29;20048;-74
2022/06/28 09:02:30;;;;;;;7.32;1.60;;;;;;;17.24;60.95;101991.00;4888076;29;20044;-74
2022/06/28 09:04:59;;;;;;;5.03;1.67;;;;;;;17.29;61.86;101994.69;4898446;29;20036;-73
2022/06/28 09:07:24;;;;;;;6.28;1.42;;;;;;;17.40;61.47;101990.25;4895990;29;20037;-74
2022/06/28 09:09:50;;;;;;;7.30;2.10;;;;;;;17.51;61.03;101992.13;4896811;29;20040;-75
2022/06/28 09:12:17;;;;;;;4.30;1.27;;;;;;;17.58;60.99;101989.22;4881181;29;20392;-74
2022/06/28 09:14:43;;;;;;;6.13;1.45;;;;;;;17.58;58.55;101985.66;4881444;29;20119;-75
2022/06/28 09:17:25;;;;;;;3.35;1.13;;;;;;;17.63;59.99;101983.84;4898159;29;20096;-73
2022/06/28 09:20:08;;;;;;;8.10;1.60;;;;;;;17.66;60.26;101982.53;4880650;29;20358;-75
2022/06/28 09:22:42;;;;;;;14.73;3.45;;;;;;;17.73;59.76;101972.25;4879352;29;20033;-73
2022/06/28 09:25:24;;;;;;;4.43;1.42;;;;;;;17.70;58.69;101973.56;4875473;29;20036;-75
2022/06/28 09:27:54;;;;;;;;;;;;;;;17.80;60.00;101967.47;4895033;29;20045;-77
2022/06/28 09:30:21;;;;;;;9.02;1.35;;;;;;;17.82;60.99;101959.81;4897794;29;19923;-78
2022/06/28 09:32:46;;;;;;;4.03;1.23;;;;;;;17.87;58.80;101967.31;4898003;29;20033;-71
2022/06/28 09:35:12;;;;;;;3.15;1.23;;;;;;;17.97;60.23;101969.44;4896671;29;20488;-74
2022/06/28 09:37:48;;;;;;;3.03;1.02;;;;;;;17.94;58.30;101953.50;4897681;29;20036;-72
2022/06/28 09:40:25;;;;;;;4.13;1.00;;;;;;;18.01;57.33;101951.41;4891174;29;20088;-72
2022/06/28 09:43:15;;;;;;;6.32;1.40;;;;;;;18.19;59.46;101958.56;4878363;29;20036;-73
2022/06/28 09:45:52;;;;;;;7.78;1.75;;;;;;;18.23;59.19;101960.53;4896085;29;20032;-72
2022/06/28 09:48:19;;;;;;;9.60;1.60;;;;;;;18.26;56.63;101947.44;4896291;29;20044;-74
2022/06/28 09:50:45;;;;;;;3.35;1.25;;;;;;;18.23;56.96;101938.63;4895000;29;20036;-73
2022/06/28 09:53:15;;;;;;;4.93;1.42;;;;;;;18.36;56.77;101942.94;4897436;29;20102;-75
2022/06/28 09:55:41;;;;;;;4.95;1.30;;;;;;;18.47;57.88;101937.63;4896265;29;20384;-74
2022/06/28 09:58:08;;;;;;;5.63;1.20;;;;;;;18.58;58.52;101937.53;4887237;29;20405;-73
2022/06/28 10:00:35;;;;;;;5.20;1.45;;;;;;;18.63;57.75;101933.16;4876159;29;20036;-72
2022/06/28 10:03:01;;;;;;;10.43;1.48;;;;;;;18.71;57.74;101938.22;4877791;29;20076;-73
2022/06/28 10:05:27;;;;;;;6.05;1.20;;;;;;;18.72;55.57;101939.88;4878426;29;20065;-73
2022/06/28 10:07:53;;;;;;;5.40;1.30;;;;;;;18.63;56.00;101935.91;4878605;29;20079;-75
2022/06/28 10:10:22;;;;;;;4.90;1.30;;;;;;;18.59;56.46;101941.91;4878643;29;20033;-73
2022/06/28 10:15:35;;;;;;;7.70;1.58;;;;;;;18.70;57.96;101936.56;4878369;29;20048;-75
2022/06/28 10:18:10;;;;;;;4.15;1.30;;;;;;;18.76;57.05;101930.06;4877232;29;20496;-72
2022/06/28 10:20:38;;;;;;;4.13;1.35;;;;;;;18.88;57.30;101927.25;4855446;29;20029;-74
2022/06/28 10:23:24;;;;;;;4.57;1.48;;;;;;;18.99;56.94;101922.72;4878168;29;20037;-73
2022/06/28 10:26:14;;;;;;;9.55;1.70;;;;;;;19.07;57.70;101930.50;4860163;29;20034;-75
2022/06/28 10:29:02;;;;;;;7.22;1.42;;;;;;;19.12;56.83;101927.81;4859973;29;20647;-74
2022/06/28 10:31:29;;;;;;;4.82;1.50;;;;;;;19.10;56.10;101919.00;4859976;29;20469;-74
2022/06/28 10:33:56;;;;;;;6.00;1.70;;;;;;;19.11;55.91;101917.91;4859824;29;20147;-72
2022/06/28 10:36:24;;;;;;;5.80;1.30;;;;;;;19.18;57.31;101909.50;4864784;29;20101;-73
2022/06/28 10:39:01;;;;;;;6.28;1.45;;;;;;;19.23;57.25;101906.81;4877114;29;20112;-74
2022/06/28 10:41:45;;;;;;;6.65;1.45;;;;;;;19.28;56.43;101906.88;4878360;29;20062;-74
2022/06/28 10:44:12;;;;;;;5.63;1.67;;;;;;;19.36;57.05;101889.09;4878526;29;20037;-73
2022/06/28 10:46:39;;;;;;;4.43;1.42;;;;;;;19.34;55.19;101899.50;4878261;29;20426;-74
2022/06/28 10:49:12;;;;;;;2.97;1.15;;;;;;;19.36;56.30;101889.09;4878492;29;20065;-72
2022/06/28 10:52:01;;;;;;;4.65;1.60;;;;;;;19.41;56.49;101887.22;4878320;29;20495;-73
2022/06/28 10:54:27;;;;;;;4.93;1.40;;;;;;;19.60;56.77;101879.44;4876508;29;20094;-73
2022/06/28 10:56:52;;;;;;;5.25;1.30;;;;;;;19.73;54.86;101872.72;4864707;29;20481;-75
2022/06/28 10:59:18;;;;;;;4.57;1.15;;;;;;;19.79;54.89;101870.84;4883560;29;20083;-72
2022/06/28 11:01:47;;;;;;;6.25;1.40;;;;;;;19.86;54.50;101882.44;4886748;29;20147;-76
2022/06/28 11:04:18;;;;;;;4.55;1.10;;;;;;;19.93;55.51;101888.56;4881646;29;20029;-74
2022/06/28 11:06:46;;;;;;;4.85;1.17;;;;;;;20.09;55.60;101874.91;4889421;29;20240;-76
2022/06/28 11:09:30;;;;;;;4.90;1.17;;;;;;;20.25;57.30;101879.44;4883623;29;20384;-73
2022/06/28 11:12:11;;;;;;;4.53;1.17;;;;;;;20.23;53.96;101867.88;4881429;29;20028;-73
2022/06/28 11:14:50;;;;;;;4.15;1.33;;;;;;;20.22;54.47;101865.41;4907253;29;20484;-77
2022/06/28 11:17:25;;;;;;;4.68;0.95;;;;;;;20.28;53.64;101856.91;4895088;29;20607;-74
2022/06/28 11:19:53;;;;;;;3.13;1.23;;;;;;;20.38;53.38;101849.81;4881403;29;20058;-73
2022/06/28 11:22:45;;;;;;;3.00;1.08;;;;;;;20.53;54.63;101866.38;4881564;29;20096;-74
2022/06/28 11:25:14;;;;;;;5.50;1.48;;;;;;;20.57;52.93;101863.94;4881549;29;20087;-77
2022/06/28 11:27:47;;;;;;;6.90;1.25;;;;;;;20.74;55.92;101855.50;4864174;29;20025;-75
2022/06/28 11:30:13;;;;;;;5.15;1.20;;;;;;;20.75;51.39;101854.41;4892985;29;20041;-75